Portada
METAR-TAF:

METAR-TAF

Aeropuertos :

Aeropuerto Internacional de Shanghái-Pudong

Shanghái-Pudong, China

latitud: 31-07N, longitud: 121-46E, altitud: 4 m

Observación

El informe se hizo hace 16 minutos, a las 00:30 UTC
Viento 8 kt del sur-sureste
Temperatura 7°C
Humedad 76%
Presión 1029 hPa
Visibilidad 10 km o más
sin nubes por debajo de 1500 m y sin presencia de cumulonimbus.

METAR: ZSPD 190030Z 16004MPS CAVOK 07/03 Q1029 NOSIG

Hora: 08:46 (00:46 UTC)

Pronóstico

El informe se hizo hace 3 horas y 27 minutos, a las 21:19 UTC
Pronóstico válido del 19 a las 00 UTC al 19 a las 24 UTC
Viento 6 kt del sureste
Visibilidad: 5000 m
Nubes dispersas a una altura de 2000 ft
neblina
Evolucionando progresivamente
del 19 a las 16 UTC al 19 a las 18 UTC
Viento 8 kt del este-noreste

TAF: ZSPD 182119Z 1900/1924 13003MPS 5000 BR SCT020 TX11/1906Z TN02/1921Z BECMG 1916/1918 06004MPS

Observaciones y pronósticos meteorológicos de más de 4000 aeropuertos (mensajes METAR y TAF).

Los puntos amarillos y rojos representan las estaciones disponibles.

Ponga el ratón en el punto deseado para ver el nombre de la estación.

Haga clic para ver las observaciones y los pronósticos meteorológicos.

Para cambiar el mapa : haga clic en los botones verdes con una cruz de color negro para hacer un zoom, en el botón verde con un guión para alejar o en las flechas verdes para mapas adyacentes.


METAR-TAF: